Time;durP1;ratioP1;P1;durP2;ratioP2;P2;SDS_P1;SDS_P2;PMS_P1;PMS_P2;Temp;Humidity;BMP_temperature;BMP_pressure;BME280_temperature;BME280_humidity;BME280_pressure;Samples;Min_cycle;Max_cycle;Signal;HPM_P1;HPM_P2
2022/12/02 00:01:40;;;;;;;45.55;17.73;;;;;;;3.72;81.80;102215.28;5050823;28;20056;-70
2022/12/02 00:04:19;;;;;;;45.85;18.45;;;;;;;3.78;81.62;102223.91;5040881;28;20041;-70
2022/12/02 00:06:48;;;;;;;46.15;18.30;;;;;;;3.90;80.82;102212.66;5030112;28;20047;-71
2022/12/02 00:09:21;;;;;;;45.75;17.48;;;;;;;3.72;81.19;102213.53;5046186;28;20048;-70
2022/12/02 00:11:49;;;;;;;45.15;16.48;;;;;;;3.71;81.26;102216.13;5040390;28;20404;-70
2022/12/02 00:14:21;;;;;;;45.13;18.50;;;;;;;3.82;81.27;102220.44;5035204;28;20095;-70
2022/12/02 00:16:47;;;;;;;45.63;17.80;;;;;;;3.84;81.30;102216.09;5021297;28;20092;-70
2022/12/02 00:19:14;;;;;;;48.95;18.42;;;;;;;3.85;81.16;102217.84;5042231;28;20052;-70
2022/12/02 00:21:40;;;;;;;47.17;17.98;;;;;;;3.81;81.36;102210.94;5031013;28;20493;-70
2022/12/02 00:24:09;;;;;;;41.83;16.58;;;;;;;3.85;80.90;102209.19;5022443;28;20044;-70
2022/12/02 00:26:35;;;;;;;47.03;18.15;;;;;;;3.81;81.36;102204.88;5062517;28;20048;-69
2022/12/02 00:29:02;;;;;;;40.75;16.13;;;;;;;3.81;81.33;102205.75;5031203;28;20049;-70
2022/12/02 00:31:28;;;;;;;45.33;17.88;;;;;;;3.86;80.96;102206.63;5024434;28;20051;-70
2022/12/02 00:33:56;;;;;;;41.35;15.93;;;;;;;3.93;80.79;102208.34;5039289;28;20067;-70
2022/12/02 00:36:23;;;;;;;40.65;16.77;;;;;;;3.93;80.75;102202.28;5036339;28;20045;-70
2022/12/02 00:38:49;;;;;;;43.92;16.92;;;;;;;3.93;80.84;102197.94;5030850;28;20048;-71
2022/12/02 00:41:17;;;;;;;45.47;17.55;;;;;;;4.05;80.13;102193.59;5029601;28;20489;-70
2022/12/02 00:46:34;;;;;;;47.45;18.08;;;;;;;3.55;81.70;102196.25;5054401;27;20047;-70
2022/12/02 00:49:04;;;;;;;46.42;17.33;;;;;;;3.69;81.65;102195.38;5048906;28;20451;-70
2022/12/02 00:51:31;;;;;;;47.90;16.73;;;;;;;3.70;81.53;102193.63;5040354;28;20047;-70
2022/12/02 00:53:58;;;;;;;40.42;15.57;;;;;;;3.66;81.84;102192.78;5062326;28;20051;-70
2022/12/02 00:56:25;;;;;;;41.70;15.77;;;;;;;3.61;81.91;102186.75;5049916;28;20055;-70
2022/12/02 00:58:52;;;;;;;39.38;15.10;;;;;;;3.43;82.58;102184.16;5039471;28;20048;-70
2022/12/02 01:01:19;;;;;;;43.67;17.00;;;;;;;3.69;81.50;102184.16;5058528;28;20039;-70
2022/12/02 01:03:45;;;;;;;37.78;16.15;;;;;;;3.77;81.41;102182.41;5071742;28;20071;-70
2022/12/02 01:06:12;;;;;;;36.40;15.68;;;;;;;3.62;81.61;102180.66;5040341;28;20435;-70
2022/12/02 01:08:38;;;;;;;42.80;16.70;;;;;;;3.71;81.52;102180.69;5048501;28;20053;-70
2022/12/02 01:11:05;;;;;;;40.70;16.55;;;;;;;3.68;81.46;102192.78;5049532;28;20044;-70
2022/12/02 01:13:33;;;;;;;37.53;16.52;;;;;;;3.74;81.58;102183.25;5040007;28;20044;-70
2022/12/02 01:16:00;;;;;;;44.53;14.88;;;;;;;3.77;81.16;102191.03;5049234;28;20045;-69
2022/12/02 01:18:26;;;;;;;32.90;14.27;;;;;;;3.79;81.09;102178.94;5049327;28;20052;-70
2022/12/02 01:20:53;;;;;;;39.92;16.33;;;;;;;3.83;81.17;102183.28;5039165;28;20067;-70
2022/12/02 01:23:19;;;;;;;42.00;15.73;;;;;;;3.77;81.35;102180.66;5049290;28;20051;-70
2022/12/02 01:25:47;;;;;;;36.15;14.52;;;;;;;3.67;81.67;102183.25;5049523;28;20048;-70
2022/12/02 01:28:14;;;;;;;41.58;16.83;;;;;;;3.64;81.98;102184.16;5039407;28;20051;-70
2022/12/02 01:30:42;;;;;;;37.80;14.98;;;;;;;3.66;81.58;102179.81;5048147;28;20479;-69
2022/12/02 01:33:08;;;;;;;39.92;16.02;;;;;;;3.57;82.13;102187.59;5050391;28;20511;-69
2022/12/02 01:35:35;;;;;;;38.80;15.40;;;;;;;3.77;81.75;102182.41;5042071;28;20045;-69
2022/12/02 01:38:02;;;;;;;38.90;15.85;;;;;;;3.73;81.93;102178.09;5076922;28;20041;-70
2022/12/02 01:40:29;;;;;;;39.25;16.55;;;;;;;3.64;81.63;102189.31;5049058;28;20128;-70
2022/12/02 01:42:55;;;;;;;42.25;16.58;;;;;;;3.74;81.58;102183.25;5039929;28;20048;-70
2022/12/02 01:45:22;;;;;;;39.67;16.52;;;;;;;3.59;82.10;102188.44;5048030;28;20051;-69
2022/12/02 01:47:50;;;;;;;36.88;16.08;;;;;;;3.69;82.13;102181.56;5050185;28;20041;-69
2022/12/02 01:50:18;;;;;;;39.42;16.73;;;;;;;3.85;80.99;102171.16;5038354;28;20059;-69
2022/12/02 01:52:45;;;;;;;38.03;16.35;;;;;;;3.95;80.90;102176.34;5048057;28;20055;-69
2022/12/02 01:55:14;;;;;;;42.63;16.95;;;;;;;3.80;80.95;102175.50;5048872;28;20040;-69
2022/12/02 01:57:41;;;;;;;38.90;16.38;;;;;;;3.98;80.85;102184.09;5038613;28;20040;-69
2022/12/02 02:00:09;;;;;;;42.85;16.70;;;;;;;3.86;80.91;102178.06;5047928;28;20071;-69
2022/12/02 02:02:38;;;;;;;39.17;15.95;;;;;;;3.65;81.95;102174.63;5029738;28;20037;-69
2022/12/02 02:05:09;;;;;;;40.38;16.20;;;;;;;3.73;81.66;102168.56;5034827;28;20041;-69
2022/12/02 02:07:37;;;;;;;45.08;16.95;;;;;;;3.71;81.59;102167.72;5046015;28;20048;-69
2022/12/02 02:10:04;;;;;;;44.38;16.80;;;;;;;3.96;80.96;102172.84;5040950;28;20048;-69
2022/12/02 02:12:31;;;;;;;39.53;16.25;;;;;;;3.90;80.57;102172.00;5048079;28;20051;-69
2022/12/02 02:14:58;;;;;;;42.70;15.15;;;;;;;3.83;81.18;102174.63;5047737;28;20401;-69
2022/12/02 02:17:24;;;;;;;36.83;17.52;;;;;;;3.76;80.92;102162.53;5040618;28;20045;-69
2022/12/02 02:19:51;;;;;;;45.90;17.00;;;;;;;3.61;81.80;102162.53;5048247;28;20059;-69
2022/12/02 02:22:23;;;;;;;40.67;16.55;;;;;;;3.56;82.09;102172.91;5047768;28;20404;-69
2022/12/02 02:24:51;;;;;;;41.97;16.25;;;;;;;3.70;81.81;102172.88;5039422;28;20127;-69
2022/12/02 02:27:17;;;;;;;43.83;17.05;;;;;;;3.64;81.93;102173.75;5048998;28;20408;-69
2022/12/02 02:29:44;;;;;;;40.22;16.20;;;;;;;3.73;81.83;102167.72;5047578;28;20049;-69
2022/12/02 02:32:11;;;;;;;42.90;16.52;;;;;;;3.83;81.64;102159.06;5038882;28;20052;-69
2022/12/02 02:34:37;;;;;;;42.85;17.52;;;;;;;3.81;81.48;102166.81;5048577;28;20044;-69
2022/12/02 02:37:04;;;;;;;44.28;17.67;;;;;;;3.81;81.47;102166.81;5046546;28;20052;-69
2022/12/02 02:39:30;;;;;;;45.80;17.10;;;;;;;3.69;82.08;102164.25;5037529;28;20045;-69
2022/12/02 02:41:59;;;;;;;40.60;15.98;;;;;;;3.75;81.82;102158.19;5048457;28;20544;-69
2022/12/02 02:44:27;;;;;;;40.90;16.15;;;;;;;3.66;81.92;102166.00;5047015;28;20416;-69
2022/12/02 02:46:54;;;;;;;45.33;15.95;;;;;;;3.64;82.03;102158.19;5037093;28;20045;-69
2022/12/02 02:49:21;;;;;;;41.90;16.35;;;;;;;3.61;82.01;102157.34;5028714;28;20128;-69
2022/12/02 02:51:47;;;;;;;40.83;16.45;;;;;;;3.77;81.94;102154.72;5030344;28;20102;-69
2022/12/02 02:54:14;;;;;;;44.47;17.00;;;;;;;3.80;81.49;102156.47;5038032;28;20747;-69
2022/12/02 02:56:41;;;;;;;43.22;17.42;;;;;;;3.69;82.14;102150.44;5047887;28;20045;-69
2022/12/02 02:59:12;;;;;;;43.10;17.27;;;;;;;3.63;82.20;102151.28;5045898;28;20040;-69
2022/12/02 03:01:39;;;;;;;40.37;16.07;;;;;;;3.72;81.93;102158.19;5037278;28;20044;-69
2022/12/02 03:04:10;;;;;;;42.85;17.48;;;;;;;3.62;82.13;102157.31;5046948;28;20045;-69
2022/12/02 03:06:39;;;;;;;41.95;17.77;;;;;;;3.68;82.24;102154.75;5047009;28;20424;-69
2022/12/02 03:09:07;;;;;;;43.97;17.40;;;;;;;3.73;82.15;102155.59;5037933;28;20048;-69
2022/12/02 03:11:36;;;;;;;41.67;15.50;;;;;;;3.70;82.05;102159.91;5046806;28;20083;-69
2022/12/02 03:14:04;;;;;;;42.25;17.15;;;;;;;3.72;82.08;102155.59;5048510;28;20063;-69
2022/12/02 03:16:33;;;;;;;45.45;17.52;;;;;;;3.80;81.48;102149.56;5041921;28;20146;-69
2022/12/02 03:18:59;;;;;;;41.70;16.90;;;;;;;3.72;81.72;102146.09;5050876;28;20049;-69
2022/12/02 03:21:27;;;;;;;40.50;16.15;;;;;;;3.69;81.91;102151.28;5051583;28;20059;-69
2022/12/02 03:23:57;;;;;;;44.70;17.33;;;;;;;3.70;81.91;102146.94;5051172;28;20064;-69
2022/12/02 03:26:24;;;;;;;46.08;18.42;;;;;;;3.77;81.81;102138.31;5052051;28;20496;-69
2022/12/02 03:28:51;;;;;;;41.10;16.95;;;;;;;3.90;81.22;102143.47;5042394;28;20423;-69
2022/12/02 03:31:18;;;;;;;42.90;18.05;;;;;;;3.67;82.13;102133.97;5052712;28;20048;-69
2022/12/02 03:33:46;;;;;;;49.58;17.55;;;;;;;3.60;82.44;102129.66;5050767;28;20048;-69
2022/12/02 03:36:12;;;;;;;45.05;16.98;;;;;;;3.64;82.26;102127.06;5041915;28;20420;-69
2022/12/02 03:38:39;;;;;;;43.28;17.45;;;;;;;3.69;82.06;102124.47;5051668;28;20051;-69
2022/12/02 03:41:07;;;;;;;41.30;17.25;;;;;;;3.62;82.11;102121.00;5088381;28;20046;-68
2022/12/02 03:43:34;;;;;;;44.40;18.30;;;;;;;3.55;82.18;102123.63;5054677;28;20487;-68
2022/12/02 03:46:01;;;;;;;43.38;17.58;;;;;;;3.52;82.53;102129.66;5051671;28;20385;-68
2022/12/02 03:48:29;;;;;;;39.88;16.80;;;;;;;3.35;83.34;102124.50;5050055;28;20044;-68
2022/12/02 03:50:57;;;;;;;37.92;16.00;;;;;;;3.46;83.16;102123.63;5041712;28;20048;-68
2022/12/02 03:53:24;;;;;;;42.05;16.15;;;;;;;3.33;83.72;102123.63;5051573;28;20044;-68
2022/12/02 03:55:51;;;;;;;39.95;15.98;;;;;;;3.48;83.14;102124.47;5051029;28;20052;-68
2022/12/02 03:58:17;;;;;;;41.65;17.02;;;;;;;3.53;82.99;102122.75;5042378;28;20048;-69
2022/12/02 04:00:43;;;;;;;44.53;17.52;;;;;;;3.50;83.11;102117.59;5051676;28;20103;-68
2022/12/02 04:03:10;;;;;;;45.15;18.50;;;;;;;3.49;82.93;102115.84;5050755;28;20052;-69
2022/12/02 04:05:36;;;;;;;42.78;16.85;;;;;;;3.62;83.08;102113.22;5040542;28;20049;-68
2022/12/02 04:08:04;;;;;;;41.53;16.58;;;;;;;3.73;82.21;102115.84;5050968;28;20041;-68
2022/12/02 04:10:31;;;;;;;38.80;16.33;;;;;;;3.87;81.70;102119.25;5050049;28;20635;-68
2022/12/02 04:12:57;;;;;;;40.05;16.65;;;;;;;3.86;81.44;102110.59;5041433;28;20045;-68
2022/12/02 04:15:24;;;;;;;41.70;16.45;;;;;;;3.72;81.63;102102.00;5050661;28;20068;-68
2022/12/02 04:17:50;;;;;;;43.38;17.80;;;;;;;3.78;81.81;102108.88;5050628;28;20536;-68
2022/12/02 04:20:17;;;;;;;35.15;15.93;;;;;;;3.87;81.53;102099.38;5043092;28;20052;-68
2022/12/02 04:22:43;;;;;;;40.75;16.00;;;;;;;3.58;82.05;102095.97;5051639;28;20411;-68
2022/12/02 04:25:11;;;;;;;36.60;14.73;;;;;;;3.73;81.79;102095.91;5051225;28;20424;-68
2022/12/02 04:27:37;;;;;;;39.95;15.90;;;;;;;3.69;81.79;102091.63;5044315;28;20390;-68
2022/12/02 04:30:05;;;;;;;39.35;15.50;;;;;;;3.59;82.26;102095.09;5050807;28;20122;-68
2022/12/02 04:32:31;;;;;;;43.78;16.60;;;;;;;3.66;82.21;102096.81;5050803;28;20040;-68
2022/12/02 04:34:58;;;;;;;40.65;16.60;;;;;;;3.68;82.33;102102.88;5046994;28;20051;-68
2022/12/02 04:37:25;;;;;;;40.88;16.45;;;;;;;3.59;82.58;102100.28;5050183;28;20052;-68
2022/12/02 04:39:52;;;;;;;38.25;15.73;;;;;;;3.54;82.38;102103.75;5049089;28;20045;-68
2022/12/02 04:42:20;;;;;;;40.15;16.50;;;;;;;3.59;82.37;102097.69;5063731;28;20055;-68
2022/12/02 04:44:46;;;;;;;40.00;16.45;;;;;;;3.53;82.90;102094.25;5050413;28;20052;-68
2022/12/02 04:47:13;;;;;;;39.40;15.55;;;;;;;3.47;82.65;102094.25;5049982;28;20486;-68
2022/12/02 04:49:39;;;;;;;40.70;16.00;;;;;;;3.59;82.29;102089.91;5049865;28;20051;-68
2022/12/02 04:52:05;;;;;;;40.53;15.73;;;;;;;3.63;81.91;102091.63;5046151;28;20080;-68
2022/12/02 04:54:32;;;;;;;36.90;16.00;;;;;;;3.58;82.25;102095.09;5048380;28;20044;-68
2022/12/02 04:56:58;;;;;;;36.78;15.43;;;;;;;3.59;82.50;102089.91;5049885;28;20052;-68
2022/12/02 04:59:26;;;;;;;37.25;16.65;;;;;;;3.61;82.47;102082.13;5039821;28;20057;-68
2022/12/02 05:01:53;;;;;;;41.30;15.27;;;;;;;3.56;82.00;102089.91;5049510;28;20048;-68
2022/12/02 05:04:19;;;;;;;35.25;15.68;;;;;;;3.60;82.51;102085.56;5051084;28;20040;-68
2022/12/02 05:06:45;;;;;;;37.15;14.63;;;;;;;3.56;82.53;102089.91;5039704;28;20052;-68
2022/12/02 05:09:12;;;;;;;37.78;16.35;;;;;;;3.71;81.72;102089.88;5048756;28;20045;-68
2022/12/02 05:11:38;;;;;;;38.60;14.50;;;;;;;3.36;82.57;102089.09;5049637;28;20416;-67
2022/12/02 05:14:05;;;;;;;39.45;14.52;;;;;;;3.44;82.86;102083.00;5040009;28;20421;-68
2022/12/02 05:16:33;;;;;;;36.65;15.05;;;;;;;3.54;82.78;102080.41;5049432;28;20044;-67
2022/12/02 05:18:59;;;;;;;30.98;13.85;;;;;;;3.65;82.44;102070.88;5050423;28;20044;-67
2022/12/02 05:21:26;;;;;;;39.33;15.88;;;;;;;3.66;82.47;102075.22;5040472;28;20091;-67
2022/12/02 05:23:52;;;;;;;42.17;15.93;;;;;;;3.59;82.50;102073.47;5049087;28;20381;-67
2022/12/02 05:26:18;;;;;;;37.28;15.32;;;;;;;3.59;82.71;102083.84;5049676;28;20048;-67
2022/12/02 05:28:45;;;;;;;39.72;15.60;;;;;;;3.60;82.54;102086.44;5040213;28;20059;-67
2022/12/02 05:31:11;;;;;;;40.78;15.02;;;;;;;3.53;82.66;102084.72;5048922;28;20044;-67
2022/12/02 05:33:39;;;;;;;35.40;15.80;;;;;;;3.51;83.20;102086.44;5049423;28;20067;-67
2022/12/02 05:36:06;;;;;;;42.30;16.33;;;;;;;3.42;83.08;102082.16;5039046;28;20393;-67
2022/12/02 05:38:32;;;;;;;40.70;15.55;;;;;;;3.33;83.87;102083.88;5047018;28;20047;-67
2022/12/02 05:40:59;;;;;;;34.67;14.57;;;;;;;3.47;83.50;102089.94;5048412;28;20052;-68
2022/12/02 05:43:26;;;;;;;36.30;14.07;;;;;;;3.58;83.17;102090.78;5038128;28;20443;-67
2022/12/02 05:45:57;;;;;;;38.88;16.77;;;;;;;3.70;82.46;102084.69;5047616;28;20068;-67
2022/12/02 05:48:25;;;;;;;35.50;14.98;;;;;;;3.64;82.67;102090.75;5048711;28;20072;-67
2022/12/02 05:50:54;;;;;;;35.60;15.02;;;;;;;3.62;82.67;102087.28;5038805;28;20488;-67
2022/12/02 05:53:23;;;;;;;35.42;14.95;;;;;;;3.43;83.30;102086.50;5057900;28;20047;-67
2022/12/02 05:55:50;;;;;;;36.95;14.80;;;;;;;3.50;83.00;102087.34;5065877;28;20503;-67
2022/12/02 05:58:17;;;;;;;39.13;15.88;;;;;;;3.62;82.58;102083.88;5056704;28;20471;-67
2022/12/02 06:00:44;;;;;;;39.28;15.40;;;;;;;3.39;83.17;102095.13;5072763;28;20396;-67
2022/12/02 06:03:16;;;;;;;38.17;14.73;;;;;;;3.53;83.01;102089.91;5075471;28;20044;-67
2022/12/02 06:05:43;;;;;;;34.78;14.90;;;;;;;3.35;83.48;102087.34;5052048;28;20052;-68
2022/12/02 06:08:17;;;;;;;33.55;13.90;;;;;;;3.31;84.03;102085.63;5047335;28;20045;-67
2022/12/02 06:10:48;;;;;;;38.72;14.75;;;;;;;3.39;83.35;102092.53;5038899;28;20523;-67
2022/12/02 06:13:19;;;;;;;34.50;14.47;;;;;;;3.41;83.72;102085.59;5048106;28;20097;-67
2022/12/02 06:15:47;;;;;;;31.48;13.40;;;;;;;3.42;83.52;102089.94;5048930;28;20542;-67
2022/12/02 06:18:15;;;;;;;37.05;14.00;;;;;;;3.48;83.03;102089.03;5048600;28;20079;-67
2022/12/02 06:20:42;;;;;;;34.05;14.93;;;;;;;3.49;83.30;102095.97;5047701;28;20049;-67
2022/12/02 06:23:13;;;;;;;35.00;13.95;;;;;;;3.54;83.08;102096.84;5043100;28;20131;-67
2022/12/02 06:25:40;;;;;;;32.50;15.20;;;;;;;3.62;82.92;102086.47;5048548;28;20071;-67
2022/12/02 06:28:20;;;;;;;32.50;14.15;;;;;;;3.56;82.93;102089.91;5047133;28;20123;-67
2022/12/02 06:30:46;;;;;;;33.72;14.13;;;;;;;3.52;82.96;102095.97;5038934;28;20428;-67
2022/12/02 06:33:24;;;;;;;39.38;14.70;;;;;;;3.66;82.45;102101.16;5073891;28;20491;-67
2022/12/02 06:35:51;;;;;;;34.63;14.00;;;;;;;3.77;81.86;102096.81;5040951;28;20063;-67
2022/12/02 06:38:26;;;;;;;31.27;13.60;;;;;;;3.60;82.46;102093.34;5048879;28;20057;-64
2022/12/02 06:40:52;;;;;;;33.83;14.02;;;;;;;3.66;82.30;102098.56;5062498;28;20484;-65
2022/12/02 06:43:24;;;;;;;30.65;13.32;;;;;;;3.65;82.45;102094.22;5038327;28;20044;-65
2022/12/02 06:45:51;;;;;;;33.60;14.38;;;;;;;3.63;82.26;102093.34;5048397;28;20044;-64
2022/12/02 06:48:26;;;;;;;29.42;12.75;;;;;;;3.73;81.75;102095.91;5048515;28;20063;-64
2022/12/02 06:50:55;;;;;;;34.67;14.73;;;;;;;3.56;82.30;102104.59;5047182;28;20055;-65
2022/12/02 06:53:41;;;;;;;36.90;14.10;;;;;;;3.65;82.00;102102.00;5048069;28;20071;-64
2022/12/02 06:56:19;;;;;;;33.28;14.20;;;;;;;3.61;82.46;102100.28;5048929;28;20040;-64
2022/12/02 06:58:47;;;;;;;31.30;13.82;;;;;;;3.86;81.88;102094.16;5045725;28;20076;-65
2022/12/02 07:01:22;;;;;;;31.27;14.73;;;;;;;3.72;82.10;102094.22;5037333;28;20068;-65
2022/12/02 07:04:03;;;;;;;31.38;14.18;;;;;;;3.77;81.78;102102.84;5046553;28;20044;-66
2022/12/02 07:06:30;;;;;;;32.78;14.88;;;;;;;3.83;81.39;102099.38;5038176;28;20049;-65
2022/12/02 07:09:01;;;;;;;34.95;13.23;;;;;;;3.71;81.69;102108.03;5050687;28;20055;-65
2022/12/02 07:11:50;;;;;;;35.13;14.68;;;;;;;3.65;82.40;102107.19;5050485;28;20067;-64
2022/12/02 07:14:25;;;;;;;30.95;14.10;;;;;;;3.87;81.69;102114.94;5042396;28;20040;-64
2022/12/02 07:16:53;;;;;;;35.10;14.45;;;;;;;3.92;80.86;102112.31;5037468;28;20048;-64
2022/12/02 07:19:22;;;;;;;34.08;13.82;;;;;;;4.03;80.75;102109.72;5057078;28;20082;-64
2022/12/02 07:21:48;;;;;;;39.88;16.52;;;;;;;3.97;80.81;102109.72;5050953;28;20041;-64
2022/12/02 07:24:20;;;;;;;32.15;14.23;;;;;;;3.91;81.35;102115.78;5037894;28;20504;-64
2022/12/02 07:26:47;;;;;;;32.40;14.23;;;;;;;4.00;80.90;102112.28;5047551;28;20048;-63
2022/12/02 07:29:20;;;;;;;36.08;15.25;;;;;;;4.08;80.48;102116.59;5047842;28;20040;-65
2022/12/02 07:31:47;;;;;;;33.67;14.60;;;;;;;4.07;80.22;102114.00;5048644;28;20040;-64
2022/12/02 07:34:13;;;;;;;33.67;15.02;;;;;;;4.11;80.30;102119.19;5047419;28;20040;-63
2022/12/02 07:36:40;;;;;;;38.15;15.55;;;;;;;4.10;80.06;102124.41;5039312;28;20048;-64
2022/12/02 07:39:06;;;;;;;39.17;15.07;;;;;;;4.18;80.00;102125.22;5047986;28;20737;-63
2022/12/02 07:41:34;;;;;;;34.40;16.73;;;;;;;4.11;80.39;102118.31;5045939;28;20044;-64
2022/12/02 07:44:01;;;;;;;43.42;18.10;;;;;;;4.06;80.46;102118.34;5039703;28;20051;-63
2022/12/02 07:46:27;;;;;;;53.35;19.13;;;;;;;4.01;80.79;102116.63;5047873;28;20052;-64
2022/12/02 07:48:54;;;;;;;41.88;17.85;;;;;;;4.04;80.53;102114.88;5047256;28;20045;-63
2022/12/02 07:51:20;;;;;;;45.25;20.35;;;;;;;4.01;80.84;102114.91;5047522;28;20056;-64
2022/12/02 07:53:46;;;;;;;41.97;18.17;;;;;;;4.01;81.03;102117.50;5045103;28;20049;-64
2022/12/02 07:56:13;;;;;;;37.03;16.98;;;;;;;4.03;81.13;102109.72;5046026;28;20045;-64
2022/12/02 07:58:41;;;;;;;35.15;15.52;;;;;;;4.02;80.81;102113.16;5047003;28;20071;-63
2022/12/02 08:01:07;;;;;;;36.20;15.25;;;;;;;3.96;81.22;102121.81;5043810;28;24601;-63
2022/12/02 08:03:33;;;;;;;33.33;14.57;;;;;;;3.97;81.41;102113.16;5049717;28;20044;-63
2022/12/02 08:06:00;;;;;;;31.38;14.38;;;;;;;3.80;82.08;102115.81;5050460;28;20408;-64
2022/12/02 08:08:26;;;;;;;36.15;16.00;;;;;;;3.98;81.35;102111.44;5040706;28;20408;-64
2022/12/02 08:10:53;;;;;;;34.28;15.25;;;;;;;4.06;80.79;102112.28;5049149;28;20048;-64
2022/12/02 08:13:19;;;;;;;34.10;14.65;;;;;;;3.96;81.21;102114.03;5052135;28;20043;-63
2022/12/02 08:15:47;;;;;;;34.88;14.50;;;;;;;3.75;81.74;102103.72;5041381;28;20056;-64
2022/12/02 08:18:14;;;;;;;37.05;15.55;;;;;;;3.78;82.11;102104.56;5049671;28;20051;-64
2022/12/02 08:20:40;;;;;;;38.55;16.52;;;;;;;3.91;81.32;102111.47;5050462;28;20053;-63
2022/12/02 08:23:06;;;;;;;38.00;16.13;;;;;;;3.96;81.48;102111.44;5041587;28;20044;-63
2022/12/02 08:25:33;;;;;;;32.15;15.23;;;;;;;3.86;81.82;102100.22;5050862;28;20044;-63
2022/12/02 08:27:59;;;;;;;33.33;14.95;;;;;;;3.98;81.34;102101.94;5050703;28;20040;-63
2022/12/02 08:30:26;;;;;;;35.53;14.13;;;;;;;3.89;81.55;102101.94;5040091;28;20048;-64
2022/12/02 08:32:54;;;;;;;35.88;15.05;;;;;;;3.79;82.05;102114.09;5050030;28;20044;-64
2022/12/02 08:35:20;;;;;;;34.05;15.25;;;;;;;3.97;81.51;102107.97;5050444;28;20052;-64
2022/12/02 08:37:47;;;;;;;39.33;16.35;;;;;;;4.01;81.21;102112.28;5039747;28;20047;-63
2022/12/02 08:40:14;;;;;;;32.17;15.13;;;;;;;3.99;81.22;102105.41;5054922;28;20048;-63
2022/12/02 08:42:41;;;;;;;31.45;15.68;;;;;;;3.92;81.57;102102.78;5050787;28;20060;-63
2022/12/02 08:45:08;;;;;;;32.72;13.93;;;;;;;4.07;81.42;102101.03;5041249;28;20044;-63
2022/12/02 08:47:35;;;;;;;31.98;13.80;;;;;;;4.15;81.35;102104.47;5054869;28;20067;-66
2022/12/02 08:50:04;;;;;;;39.95;14.70;;;;;;;3.72;82.42;102106.31;5049868;28;20045;-64
2022/12/02 08:52:31;;;;;;;33.47;14.90;;;;;;;3.88;82.28;102102.84;5040270;28;20588;-64
2022/12/02 08:54:57;;;;;;;35.92;13.98;;;;;;;4.01;81.97;102106.25;5049065;28;20048;-64
2022/12/02 08:57:24;;;;;;;36.28;15.20;;;;;;;3.93;82.09;102099.34;5056679;28;20048;-64
2022/12/02 08:59:50;;;;;;;35.90;15.85;;;;;;;4.02;81.75;102097.59;5047027;28;20158;-64
2022/12/02 09:02:17;;;;;;;31.65;14.38;;;;;;;4.14;81.43;102105.34;5049379;28;20048;-64
2022/12/02 09:04:43;;;;;;;33.95;14.93;;;;;;;4.17;81.58;102110.53;5050112;28;20040;-64
2022/12/02 09:07:11;;;;;;;33.75;14.93;;;;;;;4.15;81.29;102100.13;5038326;28;20503;-64
2022/12/02 09:09:38;;;;;;;30.25;14.05;;;;;;;4.17;81.08;102107.94;5057756;28;20044;-64
2022/12/02 09:12:04;;;;;;;31.73;15.25;;;;;;;4.13;81.07;102109.66;5071684;28;20048;-64
2022/12/02 09:14:31;;;;;;;39.58;16.60;;;;;;;4.23;81.27;102113.09;5041318;28;20046;-63
2022/12/02 09:16:57;;;;;;;33.20;15.23;;;;;;;4.34;80.66;102106.13;5049872;28;20079;-63
2022/12/02 09:19:24;;;;;;;32.42;14.57;;;;;;;4.28;80.94;102091.44;5049388;28;20503;-63
2022/12/02 09:21:50;;;;;;;32.33;14.45;;;;;;;4.33;80.66;102102.66;5040100;28;20055;-64
2022/12/02 09:24:18;;;;;;;36.10;16.00;;;;;;;4.32;80.18;102100.91;5048151;28;20044;-63
2022/12/02 09:26:44;;;;;;;33.35;14.07;;;;;;;4.23;80.80;102097.50;5049309;28;20044;-63
2022/12/02 09:29:11;;;;;;;35.67;14.63;;;;;;;4.26;80.71;102095.75;5039725;28;20048;-63
2022/12/02 09:31:37;;;;;;;37.45;14.38;;;;;;;4.25;80.69;102091.44;5048533;28;20048;-63
2022/12/02 09:34:03;;;;;;;30.50;14.63;;;;;;;3.98;81.58;102095.88;5049563;28;20412;-64
2022/12/02 09:36:30;;;;;;;35.90;15.00;;;;;;;4.12;81.61;102099.28;5038826;28;20401;-64
2022/12/02 09:38:56;;;;;;;35.35;14.82;;;;;;;4.13;81.48;102093.22;5048981;28;20412;-65
2022/12/02 09:41:25;;;;;;;31.25;15.25;;;;;;;3.93;82.06;102093.28;5039487;28;20519;-64
2022/12/02 09:43:52;;;;;;;35.72;15.25;;;;;;;4.08;81.73;102093.25;5039195;28;20052;-64
2022/12/02 09:46:18;;;;;;;32.45;13.35;;;;;;;4.13;81.71;102085.44;5048617;28;20047;-64
2022/12/02 09:48:45;;;;;;;32.88;14.50;;;;;;;4.21;81.55;102089.72;5048056;28;20060;-64
2022/12/02 09:51:12;;;;;;;36.00;14.18;;;;;;;4.24;81.27;102091.47;5039259;28;20496;-64
2022/12/02 09:53:41;;;;;;;32.00;14.00;;;;;;;4.27;80.89;102086.25;5049220;28;20055;-64
2022/12/02 09:56:14;;;;;;;32.30;14.63;;;;;;;4.34;80.84;102088.81;5028523;28;20064;-64
2022/12/02 09:58:42;;;;;;;33.40;14.50;;;;;;;4.34;80.73;102081.00;5015963;28;20428;-64
2022/12/02 10:01:10;;;;;;;26.08;13.40;;;;;;;4.14;81.08;102088.00;5027820;28;20045;-64
2022/12/02 10:03:37;;;;;;;32.97;15.10;;;;;;;4.25;80.99;102086.22;5028816;28;20051;-64
2022/12/02 10:06:07;;;;;;;35.88;15.38;;;;;;;4.21;80.98;102079.31;5022536;28;20044;-64
2022/12/02 10:08:34;;;;;;;33.72;15.65;;;;;;;4.22;81.35;102083.66;5028799;28;20045;-64
2022/12/02 10:11:01;;;;;;;40.25;17.33;;;;;;;4.24;80.85;102079.34;5029674;28;20067;-64
2022/12/02 10:13:27;;;;;;;35.15;16.73;;;;;;;4.28;80.68;102082.78;5035568;28;20057;-64
2022/12/02 10:15:58;;;;;;;34.60;16.08;;;;;;;4.22;80.75;102078.47;5045601;28;20576;-63
2022/12/02 10:18:28;;;;;;;36.70;15.52;;;;;;;4.31;80.80;102073.25;5039613;28;20492;-63
2022/12/02 10:20:55;;;;;;;37.78;15.90;;;;;;;4.34;80.92;102074.94;5036148;28;20049;-64
2022/12/02 10:23:23;;;;;;;30.80;14.55;;;;;;;4.43;80.50;102073.16;5028120;28;20045;-64
2022/12/02 10:25:53;;;;;;;37.33;16.10;;;;;;;4.30;80.78;102073.25;5019608;28;20056;-64
2022/12/02 10:28:23;;;;;;;37.15;15.57;;;;;;;4.31;81.02;102070.66;5027768;28;20483;-64
2022/12/02 10:30:52;;;;;;;31.83;14.45;;;;;;;4.35;80.45;102066.31;5028521;28;20051;-64
2022/12/02 10:33:24;;;;;;;28.50;13.95;;;;;;;4.39;80.51;102068.88;5058428;28;20241;-64
2022/12/02 10:35:51;;;;;;;33.40;14.40;;;;;;;4.25;81.29;102067.22;5060315;27;20043;-65
2022/12/02 10:38:38;;;;;;;30.98;14.55;;;;;;;4.28;80.98;102067.22;5078522;27;20036;-64
2022/12/02 10:41:23;;;;;;;27.98;14.20;;;;;;;4.18;81.10;102062.91;5059874;28;20044;-64
2022/12/02 10:44:04;;;;;;;32.83;15.65;;;;;;;4.37;80.64;102060.22;5039394;28;20139;-64
2022/12/02 10:46:32;;;;;;;28.55;12.82;;;;;;;4.16;80.59;102064.66;5054524;27;20059;-64
2022/12/02 10:49:28;;;;;;;31.70;14.13;;;;;;;4.19;80.94;102062.91;5044459;28;20515;-64
2022/12/02 10:51:58;;;;;;;28.42;13.63;;;;;;;4.29;80.60;102058.53;5054182;28;20145;-64
2022/12/02 10:54:27;;;;;;;28.67;13.55;;;;;;;4.18;80.98;102062.91;5045904;28;20072;-64
2022/12/02 10:56:55;;;;;;;30.92;13.15;;;;;;;4.20;81.40;102053.41;5061213;28;20162;-64
2022/12/02 10:59:22;;;;;;;28.15;13.20;;;;;;;4.35;80.82;102049.00;5056492;28;20054;-64
2022/12/02 11:01:49;;;;;;;32.50;13.48;;;;;;;4.27;80.61;102049.91;5069418;28;20058;-64
2022/12/02 11:04:17;;;;;;;23.40;11.68;;;;;;;4.10;80.97;102051.72;5065943;28;20449;-64
2022/12/02 11:06:44;;;;;;;26.92;13.30;;;;;;;4.17;81.30;102043.03;5066751;28;20558;-64
2022/12/02 11:09:16;;;;;;;32.70;13.75;;;;;;;4.17;81.05;102041.31;5071300;28;20047;-64
2022/12/02 11:11:42;;;;;;;31.65;13.60;;;;;;;4.18;81.01;102045.59;5055872;27;21639;-64
2022/12/02 11:14:12;;;;;;;28.05;13.30;;;;;;;4.11;81.32;102049.09;5055639;27;20047;-64
2022/12/02 11:17:05;;;;;;;30.80;14.98;;;;;;;3.86;81.77;102035.38;5066685;27;20605;-64
2022/12/02 11:19:44;;;;;;;31.85;13.15;;;;;;;3.87;81.90;102037.09;5058687;27;20044;-64
2022/12/02 11:22:49;;;;;;;31.65;13.82;;;;;;;3.97;82.03;102045.69;5066980;27;20081;-64
2022/12/02 11:26:07;;;;;;;29.17;13.43;;;;;;;3.97;81.73;102040.50;5054009;27;20060;-64